sensor_id;sensor_type;location;lat;lon;timestamp;temperature;humidity
18577;DHT22;9418;52.694;13.294;2022-10-16T00:00:21;15.00;99.90
18577;DHT22;9418;52.694;13.294;2022-10-16T00:02:47;15.00;99.90
18577;DHT22;9418;52.694;13.294;2022-10-16T00:05:14;15.00;99.90
18577;DHT22;9418;52.694;13.294;2022-10-16T00:07:41;15.00;99.90
18577;DHT22;9418;52.694;13.294;2022-10-16T00:10:08;15.10;99.90
18577;DHT22;9418;52.694;13.294;2022-10-16T00:12:34;15.10;99.90
18577;DHT22;9418;52.694;13.294;2022-10-16T00:15:01;15.10;99.90
18577;DHT22;9418;52.694;13.294;2022-10-16T00:17:29;15.20;99.90
18577;DHT22;9418;52.694;13.294;2022-10-16T00:19:56;15.20;99.90
18577;DHT22;9418;52.694;13.294;2022-10-16T00:22:23;15.20;99.90
18577;DHT22;9418;52.694;13.294;2022-10-16T00:24:50;15.20;99.90
18577;DHT22;9418;52.694;13.294;2022-10-16T00:27:17;15.20;99.90
18577;DHT22;9418;52.694;13.294;2022-10-16T00:29:44;15.30;99.90
18577;DHT22;9418;52.694;13.294;2022-10-16T00:32:10;15.30;99.90
18577;DHT22;9418;52.694;13.294;2022-10-16T00:34:38;15.30;99.90
18577;DHT22;9418;52.694;13.294;2022-10-16T00:37:05;15.30;99.90
18577;DHT22;9418;52.694;13.294;2022-10-16T00:39:31;15.30;99.90
18577;DHT22;9418;52.694;13.294;2022-10-16T00:41:58;15.30;99.90
18577;DHT22;9418;52.694;13.294;2022-10-16T00:44:46;15.30;99.90
18577;DHT22;9418;52.694;13.294;2022-10-16T00:47:19;15.30;99.90
18577;DHT22;9418;52.694;13.294;2022-10-16T00:49:50;15.30;99.90
18577;DHT22;9418;52.694;13.294;2022-10-16T00:52:17;15.30;99.90
18577;DHT22;9418;52.694;13.294;2022-10-16T00:54:46;15.30;99.90
18577;DHT22;9418;52.694;13.294;2022-10-16T00:57:13;15.30;99.90
18577;DHT22;9418;52.694;13.294;2022-10-16T00:59:41;15.20;99.90
18577;DHT22;9418;52.694;13.294;2022-10-16T01:02:11;15.30;99.90
18577;DHT22;9418;52.694;13.294;2022-10-16T01:04:40;15.30;99.90
18577;DHT22;9418;52.694;13.294;2022-10-16T01:07:14;15.30;99.90
18577;DHT22;9418;52.694;13.294;2022-10-16T01:09:50;15.30;99.90
18577;DHT22;9418;52.694;13.294;2022-10-16T01:12:22;15.30;99.90
18577;DHT22;9418;52.694;13.294;2022-10-16T01:14:55;15.30;99.90
18577;DHT22;9418;52.694;13.294;2022-10-16T01:17:29;15.30;99.90
18577;DHT22;9418;52.694;13.294;2022-10-16T01:20:10;15.30;99.90
18577;DHT22;9418;52.694;13.294;2022-10-16T01:22:48;15.30;99.90
18577;DHT22;9418;52.694;13.294;2022-10-16T01:25:22;15.30;99.90
18577;DHT22;9418;52.694;13.294;2022-10-16T01:27:52;15.40;99.90
18577;DHT22;9418;52.694;13.294;2022-10-16T01:30:23;15.30;99.90
18577;DHT22;9418;52.694;13.294;2022-10-16T01:32:54;15.40;99.90
18577;DHT22;9418;52.694;13.294;2022-10-16T01:35:26;15.40;99.90
18577;DHT22;9418;52.694;13.294;2022-10-16T01:37:57;15.40;99.90
18577;DHT22;9418;52.694;13.294;2022-10-16T01:40:26;15.40;99.90
18577;DHT22;9418;52.694;13.294;2022-10-16T01:42:56;15.40;99.90
18577;DHT22;9418;52.694;13.294;2022-10-16T01:45:25;15.40;99.90
18577;DHT22;9418;52.694;13.294;2022-10-16T01:47:55;15.40;99.90
18577;DHT22;9418;52.694;13.294;2022-10-16T01:50:22;15.40;99.90
18577;DHT22;9418;52.694;13.294;2022-10-16T01:52:52;15.40;99.90
18577;DHT22;9418;52.694;13.294;2022-10-16T01:55:24;15.40;99.90
18577;DHT22;9418;52.694;13.294;2022-10-16T01:57:55;15.40;99.90
18577;DHT22;9418;52.694;13.294;2022-10-16T02:00:23;15.40;99.90
18577;DHT22;9418;52.694;13.294;2022-10-16T02:02:53;15.40;99.90
18577;DHT22;9418;52.694;13.294;2022-10-16T02:05:24;15.40;99.90
18577;DHT22;9418;52.694;13.294;2022-10-16T02:07:52;15.40;99.90
18577;DHT22;9418;52.694;13.294;2022-10-16T02:10:19;15.40;99.90
18577;DHT22;9418;52.694;13.294;2022-10-16T02:12:50;15.40;99.90
18577;DHT22;9418;52.694;13.294;2022-10-16T02:15:21;15.40;99.90
18577;DHT22;9418;52.694;13.294;2022-10-16T02:17:48;15.40;99.90
18577;DHT22;9418;52.694;13.294;2022-10-16T02:20:15;15.30;99.90
18577;DHT22;9418;52.694;13.294;2022-10-16T02:22:44;15.40;99.90
18577;DHT22;9418;52.694;13.294;2022-10-16T02:25:17;15.30;99.90
18577;DHT22;9418;52.694;13.294;2022-10-16T02:27:49;15.30;99.90
18577;DHT22;9418;52.694;13.294;2022-10-16T02:30:24;15.30;99.90
18577;DHT22;9418;52.694;13.294;2022-10-16T02:32:51;15.30;99.90
18577;DHT22;9418;52.694;13.294;2022-10-16T02:35:20;15.20;99.90
18577;DHT22;9418;52.694;13.294;2022-10-16T02:37:47;15.20;99.90
18577;DHT22;9418;52.694;13.294;2022-10-16T02:40:15;15.20;99.90
18577;DHT22;9418;52.694;13.294;2022-10-16T02:42:43;15.20;99.90
18577;DHT22;9418;52.694;13.294;2022-10-16T02:45:10;15.20;99.90
18577;DHT22;9418;52.694;13.294;2022-10-16T02:47:39;15.20;99.90
18577;DHT22;9418;52.694;13.294;2022-10-16T02:50:06;15.10;99.90
18577;DHT22;9418;52.694;13.294;2022-10-16T02:52:33;15.10;99.90
18577;DHT22;9418;52.694;13.294;2022-10-16T02:54:59;15.00;99.90
18577;DHT22;9418;52.694;13.294;2022-10-16T02:57:26;15.00;99.90
18577;DHT22;9418;52.694;13.294;2022-10-16T02:59:52;15.00;99.90
18577;DHT22;9418;52.694;13.294;2022-10-16T03:02:19;15.00;99.90
18577;DHT22;9418;52.694;13.294;2022-10-16T03:04:47;14.90;99.90
18577;DHT22;9418;52.694;13.294;2022-10-16T03:07:14;14.90;99.90
18577;DHT22;9418;52.694;13.294;2022-10-16T03:09:40;14.90;99.90
18577;DHT22;9418;52.694;13.294;2022-10-16T03:12:07;14.80;99.90
18577;DHT22;9418;52.694;13.294;2022-10-16T03:14:34;14.80;99.90
18577;DHT22;9418;52.694;13.294;2022-10-16T03:17:01;14.80;99.90
18577;DHT22;9418;52.694;13.294;2022-10-16T03:19:28;14.80;99.90
18577;DHT22;9418;52.694;13.294;2022-10-16T03:21:55;14.70;99.90
18577;DHT22;9418;52.694;13.294;2022-10-16T03:24:22;14.60;99.90
18577;DHT22;9418;52.694;13.294;2022-10-16T03:26:49;14.60;99.90
18577;DHT22;9418;52.694;13.294;2022-10-16T03:29:15;14.50;99.90
18577;DHT22;9418;52.694;13.294;2022-10-16T03:31:42;14.50;99.90
18577;DHT22;9418;52.694;13.294;2022-10-16T03:34:09;14.40;99.90
18577;DHT22;9418;52.694;13.294;2022-10-16T03:36:35;14.30;99.90
18577;DHT22;9418;52.694;13.294;2022-10-16T03:39:03;14.30;99.90
18577;DHT22;9418;52.694;13.294;2022-10-16T03:41:30;14.20;99.90
18577;DHT22;9418;52.694;13.294;2022-10-16T03:43:56;14.20;99.90
18577;DHT22;9418;52.694;13.294;2022-10-16T03:46:23;14.10;99.90
18577;DHT22;9418;52.694;13.294;2022-10-16T03:48:50;14.10;99.90
18577;DHT22;9418;52.694;13.294;2022-10-16T03:51:16;14.00;99.90
18577;DHT22;9418;52.694;13.294;2022-10-16T03:53:43;14.00;99.90
18577;DHT22;9418;52.694;13.294;2022-10-16T03:56:11;13.90;99.90
18577;DHT22;9418;52.694;13.294;2022-10-16T03:58:37;13.90;99.90
18577;DHT22;9418;52.694;13.294;2022-10-16T04:01:04;13.90;99.90
18577;DHT22;9418;52.694;13.294;2022-10-16T04:03:30;13.80;99.90
18577;DHT22;9418;52.694;13.294;2022-10-16T04:05:57;13.80;99.90
18577;DHT22;9418;52.694;13.294;2022-10-16T04:08:24;13.80;99.90
18577;DHT22;9418;52.694;13.294;2022-10-16T04:10:50;13.80;99.90
18577;DHT22;9418;52.694;13.294;2022-10-16T04:13:19;13.80;99.90
18577;DHT22;9418;52.694;13.294;2022-10-16T04:15:45;13.70;99.90
18577;DHT22;9418;52.694;13.294;2022-10-16T04:18:12;13.70;99.90
18577;DHT22;9418;52.694;13.294;2022-10-16T04:20:38;13.70;99.90
18577;DHT22;9418;52.694;13.294;2022-10-16T04:23:05;13.60;99.90
18577;DHT22;9418;52.694;13.294;2022-10-16T04:25:32;13.60;99.90
18577;DHT22;9418;52.694;13.294;2022-10-16T04:27:58;13.60;99.90
18577;DHT22;9418;52.694;13.294;2022-10-16T04:30:26;13.60;99.90
18577;DHT22;9418;52.694;13.294;2022-10-16T04:32:53;13.60;99.90
18577;DHT22;9418;52.694;13.294;2022-10-16T04:35:20;13.60;99.90
18577;DHT22;9418;52.694;13.294;2022-10-16T04:37:47;13.50;99.90
18577;DHT22;9418;52.694;13.294;2022-10-16T04:40:14;13.50;99.90
18577;DHT22;9418;52.694;13.294;2022-10-16T04:42:41;13.50;99.90
18577;DHT22;9418;52.694;13.294;2022-10-16T04:45:08;13.50;99.90
18577;DHT22;9418;52.694;13.294;2022-10-16T04:47:36;13.50;99.90
18577;DHT22;9418;52.694;13.294;2022-10-16T04:50:03;13.50;99.90
18577;DHT22;9418;52.694;13.294;2022-10-16T04:52:30;13.50;99.90
18577;DHT22;9418;52.694;13.294;2022-10-16T04:54:57;13.50;99.90
18577;DHT22;9418;52.694;13.294;2022-10-16T04:57:27;13.40;99.90
18577;DHT22;9418;52.694;13.294;2022-10-16T04:59:53;13.40;99.90
18577;DHT22;9418;52.694;13.294;2022-10-16T05:02:20;13.40;99.30
18577;DHT22;9418;52.694;13.294;2022-10-16T05:04:48;13.30;99.90
18577;DHT22;9418;52.694;13.294;2022-10-16T05:07:14;13.30;97.90
18577;DHT22;9418;52.694;13.294;2022-10-16T05:09:41;13.30;95.70
18577;DHT22;9418;52.694;13.294;2022-10-16T05:12:08;13.20;94.30
18577;DHT22;9418;52.694;13.294;2022-10-16T05:14:35;13.20;93.90
18577;DHT22;9418;52.694;13.294;2022-10-16T05:17:01;13.20;92.80
18577;DHT22;9418;52.694;13.294;2022-10-16T05:19:28;13.20;91.80
18577;DHT22;9418;52.694;13.294;2022-10-16T05:21:56;13.20;88.80
18577;DHT22;9418;52.694;13.294;2022-10-16T05:24:23;13.20;86.70
18577;DHT22;9418;52.694;13.294;2022-10-16T05:26:50;13.10;84.20
18577;DHT22;9418;52.694;13.294;2022-10-16T05:29:16;13.10;83.00
18577;DHT22;9418;52.694;13.294;2022-10-16T05:31:43;13.20;80.30
18577;DHT22;9418;52.694;13.294;2022-10-16T05:34:10;13.20;79.80
18577;DHT22;9418;52.694;13.294;2022-10-16T05:36:36;13.10;78.70
18577;DHT22;9418;52.694;13.294;2022-10-16T05:39:04;13.10;78.90
18577;DHT22;9418;52.694;13.294;2022-10-16T05:41:31;13.20;79.10
18577;DHT22;9418;52.694;13.294;2022-10-16T05:43:58;13.20;79.10
18577;DHT22;9418;52.694;13.294;2022-10-16T05:46:24;13.20;78.20
18577;DHT22;9418;52.694;13.294;2022-10-16T05:48:51;13.20;77.40
18577;DHT22;9418;52.694;13.294;2022-10-16T05:51:18;13.20;76.30
18577;DHT22;9418;52.694;13.294;2022-10-16T05:53:45;13.20;74.40
18577;DHT22;9418;52.694;13.294;2022-10-16T05:56:13;13.20;73.30
18577;DHT22;9418;52.694;13.294;2022-10-16T05:58:40;13.30;74.10
18577;DHT22;9418;52.694;13.294;2022-10-16T06:01:10;13.30;71.00
18577;DHT22;9418;52.694;13.294;2022-10-16T06:03:37;13.40;66.70
18577;DHT22;9418;52.694;13.294;2022-10-16T06:06:08;13.40;64.10
18577;DHT22;9418;52.694;13.294;2022-10-16T06:08:35;13.40;62.20
18577;DHT22;9418;52.694;13.294;2022-10-16T06:11:02;13.50;61.10
18577;DHT22;9418;52.694;13.294;2022-10-16T06:13:30;13.60;58.50
18577;DHT22;9418;52.694;13.294;2022-10-16T06:15:58;13.60;56.00
18577;DHT22;9418;52.694;13.294;2022-10-16T06:18:25;13.70;53.10
18577;DHT22;9418;52.694;13.294;2022-10-16T06:20:51;13.80;51.00
18577;DHT22;9418;52.694;13.294;2022-10-16T06:23:18;13.90;48.90
18577;DHT22;9418;52.694;13.294;2022-10-16T06:25:45;13.90;48.50
18577;DHT22;9418;52.694;13.294;2022-10-16T06:28:13;14.00;48.20
18577;DHT22;9418;52.694;13.294;2022-10-16T06:30:41;14.00;46.90
18577;DHT22;9418;52.694;13.294;2022-10-16T06:33:09;14.00;46.90
18577;DHT22;9418;52.694;13.294;2022-10-16T06:35:35;14.00;46.10
18577;DHT22;9418;52.694;13.294;2022-10-16T06:38:02;14.10;46.50
18577;DHT22;9418;52.694;13.294;2022-10-16T06:40:28;14.10;45.30
18577;DHT22;9418;52.694;13.294;2022-10-16T06:42:55;14.20;47.80
18577;DHT22;9418;52.694;13.294;2022-10-16T06:45:22;14.20;48.30
18577;DHT22;9418;52.694;13.294;2022-10-16T06:47:50;14.20;48.00
18577;DHT22;9418;52.694;13.294;2022-10-16T06:50:16;14.20;48.40
18577;DHT22;9418;52.694;13.294;2022-10-16T06:52:43;14.30;48.00
18577;DHT22;9418;52.694;13.294;2022-10-16T06:55:10;14.30;48.70
18577;DHT22;9418;52.694;13.294;2022-10-16T06:57:36;14.40;50.30
18577;DHT22;9418;52.694;13.294;2022-10-16T07:00:04;14.40;51.00
18577;DHT22;9418;52.694;13.294;2022-10-16T07:02:30;14.40;53.90
18577;DHT22;9418;52.694;13.294;2022-10-16T07:04:58;14.50;54.40
18577;DHT22;9418;52.694;13.294;2022-10-16T07:07:25;14.50;55.80
18577;DHT22;9418;52.694;13.294;2022-10-16T07:09:52;14.60;56.10
18577;DHT22;9418;52.694;13.294;2022-10-16T07:12:18;14.60;58.70
18577;DHT22;9418;52.694;13.294;2022-10-16T07:14:45;14.60;61.50
18577;DHT22;9418;52.694;13.294;2022-10-16T07:17:11;14.70;65.40
18577;DHT22;9418;52.694;13.294;2022-10-16T07:19:38;14.70;70.20
18577;DHT22;9418;52.694;13.294;2022-10-16T07:22:06;14.80;76.80
18577;DHT22;9418;52.694;13.294;2022-10-16T07:24:33;14.80;80.80
18577;DHT22;9418;52.694;13.294;2022-10-16T07:27:00;14.90;85.40
18577;DHT22;9418;52.694;13.294;2022-10-16T07:29:27;14.90;88.50
18577;DHT22;9418;52.694;13.294;2022-10-16T07:31:53;14.90;89.70
18577;DHT22;9418;52.694;13.294;2022-10-16T07:34:20;15.00;93.50
18577;DHT22;9418;52.694;13.294;2022-10-16T07:36:48;15.00;97.00
18577;DHT22;9418;52.694;13.294;2022-10-16T07:39:16;15.10;99.90
18577;DHT22;9418;52.694;13.294;2022-10-16T07:41:43;15.20;99.90
18577;DHT22;9418;52.694;13.294;2022-10-16T07:44:10;15.20;99.90
18577;DHT22;9418;52.694;13.294;2022-10-16T07:46:37;15.20;99.90
18577;DHT22;9418;52.694;13.294;2022-10-16T07:49:03;15.30;99.90
18577;DHT22;9418;52.694;13.294;2022-10-16T07:51:30;15.30;99.90
18577;DHT22;9418;52.694;13.294;2022-10-16T07:53:57;15.40;99.90
18577;DHT22;9418;52.694;13.294;2022-10-16T07:56:25;15.40;99.90
18577;DHT22;9418;52.694;13.294;2022-10-16T07:58:51;15.50;99.90
18577;DHT22;9418;52.694;13.294;2022-10-16T08:01:19;15.50;99.90
18577;DHT22;9418;52.694;13.294;2022-10-16T08:03:47;15.60;99.90
18577;DHT22;9418;52.694;13.294;2022-10-16T08:06:14;15.60;99.90
18577;DHT22;9418;52.694;13.294;2022-10-16T08:08:41;15.70;99.90
18577;DHT22;9418;52.694;13.294;2022-10-16T08:11:08;15.80;99.90
18577;DHT22;9418;52.694;13.294;2022-10-16T08:13:36;15.80;99.90
18577;DHT22;9418;52.694;13.294;2022-10-16T08:16:04;15.90;99.90
18577;DHT22;9418;52.694;13.294;2022-10-16T08:18:33;15.90;99.90
18577;DHT22;9418;52.694;13.294;2022-10-16T08:21:00;15.90;99.90
18577;DHT22;9418;52.694;13.294;2022-10-16T08:23:27;15.90;99.90
18577;DHT22;9418;52.694;13.294;2022-10-16T08:25:54;15.90;99.90
18577;DHT22;9418;52.694;13.294;2022-10-16T08:28:22;15.90;99.90
18577;DHT22;9418;52.694;13.294;2022-10-16T08:30:50;16.00;99.90
18577;DHT22;9418;52.694;13.294;2022-10-16T08:33:17;16.00;99.90
18577;DHT22;9418;52.694;13.294;2022-10-16T08:35:50;16.00;99.90
18577;DHT22;9418;52.694;13.294;2022-10-16T08:38:17;16.10;99.90
18577;DHT22;9418;52.694;13.294;2022-10-16T08:40:44;16.10;99.90
18577;DHT22;9418;52.694;13.294;2022-10-16T08:43:35;16.10;99.90
18577;DHT22;9418;52.694;13.294;2022-10-16T08:46:25;16.20;99.90
18577;DHT22;9418;52.694;13.294;2022-10-16T08:48:55;16.20;99.90
18577;DHT22;9418;52.694;13.294;2022-10-16T08:51:24;16.30;99.90
18577;DHT22;9418;52.694;13.294;2022-10-16T08:53:54;16.30;99.90
18577;DHT22;9418;52.694;13.294;2022-10-16T08:56:21;16.30;99.90
18577;DHT22;9418;52.694;13.294;2022-10-16T08:58:49;16.40;99.90
18577;DHT22;9418;52.694;13.294;2022-10-16T09:01:21;16.50;99.90
18577;DHT22;9418;52.694;13.294;2022-10-16T09:04:05;16.50;99.90
18577;DHT22;9418;52.694;13.294;2022-10-16T09:06:43;16.60;99.90
18577;DHT22;9418;52.694;13.294;2022-10-16T09:09:29;16.60;99.90
18577;DHT22;9418;52.694;13.294;2022-10-16T09:12:05;16.60;89.10
18577;DHT22;9418;52.694;13.294;2022-10-16T09:14:42;16.60;96.70
18577;DHT22;9418;52.694;13.294;2022-10-16T09:17:22;16.60;99.90
18577;DHT22;9418;52.694;13.294;2022-10-16T09:19:59;16.70;94.70
18577;DHT22;9418;52.694;13.294;2022-10-16T09:22:31;17.00;34.00
18577;DHT22;9418;52.694;13.294;2022-10-16T09:25:00;17.00;35.90
18577;DHT22;9418;52.694;13.294;2022-10-16T09:27:27;17.10;39.00
18577;DHT22;9418;52.694;13.294;2022-10-16T09:29:54;17.10;47.10
18577;DHT22;9418;52.694;13.294;2022-10-16T09:32:23;17.40;49.40
18577;DHT22;9418;52.694;13.294;2022-10-16T09:34:52;17.80;85.10
18577;DHT22;9418;52.694;13.294;2022-10-16T09:37:22;17.80;87.50
18577;DHT22;9418;52.694;13.294;2022-10-16T09:39:50;18.00;94.00
18577;DHT22;9418;52.694;13.294;2022-10-16T09:42:18;18.50;99.90
18577;DHT22;9418;52.694;13.294;2022-10-16T09:44:48;18.40;99.90
18577;DHT22;9418;52.694;13.294;2022-10-16T09:47:18;18.50;99.90
18577;DHT22;9418;52.694;13.294;2022-10-16T09:49:55;18.90;99.90
18577;DHT22;9418;52.694;13.294;2022-10-16T09:52:23;19.30;99.90
18577;DHT22;9418;52.694;13.294;2022-10-16T09:54:51;19.20;99.90
18577;DHT22;9418;52.694;13.294;2022-10-16T09:57:18;18.90;99.90
18577;DHT22;9418;52.694;13.294;2022-10-16T09:59:47;18.40;99.90
18577;DHT22;9418;52.694;13.294;2022-10-16T10:02:15;18.20;99.90
18577;DHT22;9418;52.694;13.294;2022-10-16T10:04:48;18.10;99.90
18577;DHT22;9418;52.694;13.294;2022-10-16T10:07:23;18.40;99.90
18577;DHT22;9418;52.694;13.294;2022-10-16T10:09:51;18.40;99.90
18577;DHT22;9418;52.694;13.294;2022-10-16T10:12:20;18.40;99.90
18577;DHT22;9418;52.694;13.294;2022-10-16T10:14:49;18.40;99.90
18577;DHT22;9418;52.694;13.294;2022-10-16T10:17:18;18.40;99.90
18577;DHT22;9418;52.694;13.294;2022-10-16T10:19:51;18.20;99.90
18577;DHT22;9418;52.694;13.294;2022-10-16T10:22:29;18.10;99.90
18577;DHT22;9418;52.694;13.294;2022-10-16T10:24:57;18.20;99.90
18577;DHT22;9418;52.694;13.294;2022-10-16T10:27:32;18.20;99.90
18577;DHT22;9418;52.694;13.294;2022-10-16T10:30:07;18.30;99.90
18577;DHT22;9418;52.694;13.294;2022-10-16T10:32:41;18.40;99.90
18577;DHT22;9418;52.694;13.294;2022-10-16T10:35:17;18.50;99.90
18577;DHT22;9418;52.694;13.294;2022-10-16T10:37:58;18.60;99.90
18577;DHT22;9418;52.694;13.294;2022-10-16T10:40:38;18.60;99.90
18577;DHT22;9418;52.694;13.294;2022-10-16T10:43:10;18.50;99.90
18577;DHT22;9418;52.694;13.294;2022-10-16T10:45:43;18.60;99.90
18577;DHT22;9418;52.694;13.294;2022-10-16T10:48:19;18.50;99.90
18577;DHT22;9418;52.694;13.294;2022-10-16T10:50:50;18.50;99.90
18577;DHT22;9418;52.694;13.294;2022-10-16T10:53:28;18.50;99.90
18577;DHT22;9418;52.694;13.294;2022-10-16T10:56:08;18.40;99.90
18577;DHT22;9418;52.694;13.294;2022-10-16T10:59:02;18.50;99.90
18577;DHT22;9418;52.694;13.294;2022-10-16T11:01:39;18.50;99.90
18577;DHT22;9418;52.694;13.294;2022-10-16T11:04:29;18.50;99.90
18577;DHT22;9418;52.694;13.294;2022-10-16T11:07:03;18.60;99.90
18577;DHT22;9418;52.694;13.294;2022-10-16T11:09:36;18.70;99.90
18577;DHT22;9418;52.694;13.294;2022-10-16T11:12:06;18.70;99.90
18577;DHT22;9418;52.694;13.294;2022-10-16T11:14:36;18.80;99.90
18577;DHT22;9418;52.694;13.294;2022-10-16T11:17:10;18.70;99.90
18577;DHT22;9418;52.694;13.294;2022-10-16T11:19:43;18.70;99.90
18577;DHT22;9418;52.694;13.294;2022-10-16T11:22:16;18.60;99.90
18577;DHT22;9418;52.694;13.294;2022-10-16T11:24:46;18.50;99.90
18577;DHT22;9418;52.694;13.294;2022-10-16T11:27:17;18.60;99.90
18577;DHT22;9418;52.694;13.294;2022-10-16T11:29:51;18.70;99.90
18577;DHT22;9418;52.694;13.294;2022-10-16T11:32:22;18.80;99.90
18577;DHT22;9418;52.694;13.294;2022-10-16T11:34:53;18.90;99.90
18577;DHT22;9418;52.694;13.294;2022-10-16T11:37:27;19.00;99.90
18577;DHT22;9418;52.694;13.294;2022-10-16T11:40:03;19.10;99.90
18577;DHT22;9418;52.694;13.294;2022-10-16T11:42:35;19.20;99.90
18577;DHT22;9418;52.694;13.294;2022-10-16T11:45:11;19.20;99.90
18577;DHT22;9418;52.694;13.294;2022-10-16T11:47:44;19.30;99.90
18577;DHT22;9418;52.694;13.294;2022-10-16T11:50:20;19.30;99.90
18577;DHT22;9418;52.694;13.294;2022-10-16T11:52:53;19.40;99.90
18577;DHT22;9418;52.694;13.294;2022-10-16T11:55:26;19.50;99.90
18577;DHT22;9418;52.694;13.294;2022-10-16T11:58:00;19.50;99.90
18577;DHT22;9418;52.694;13.294;2022-10-16T12:00:32;19.60;99.90
18577;DHT22;9418;52.694;13.294;2022-10-16T12:03:05;19.50;99.90
18577;DHT22;9418;52.694;13.294;2022-10-16T12:05:52;19.40;28.60
18577;DHT22;9418;52.694;13.294;2022-10-16T12:08:22;19.40;28.50
18577;DHT22;9418;52.694;13.294;2022-10-16T12:10:50;19.40;36.30
18577;DHT22;9418;52.694;13.294;2022-10-16T12:13:30;19.40;34.80
18577;DHT22;9418;52.694;13.294;2022-10-16T12:16:20;19.90;47.30
18577;DHT22;9418;52.694;13.294;2022-10-16T12:18:48;20.40;63.90
18577;DHT22;9418;52.694;13.294;2022-10-16T12:21:16;20.20;76.20
18577;DHT22;9418;52.694;13.294;2022-10-16T12:23:48;20.10;72.90
18577;DHT22;9418;52.694;13.294;2022-10-16T12:26:24;20.00;69.90
18577;DHT22;9418;52.694;13.294;2022-10-16T12:28:51;20.00;73.30
18577;DHT22;9418;52.694;13.294;2022-10-16T12:31:17;19.90;68.00
18577;DHT22;9418;52.694;13.294;2022-10-16T12:33:55;20.10;70.80
18577;DHT22;9418;52.694;13.294;2022-10-16T12:36:28;20.20;66.70
18577;DHT22;9418;52.694;13.294;2022-10-16T12:38:55;20.30;74.30
18577;DHT22;9418;52.694;13.294;2022-10-16T12:41:28;20.30;73.90
18577;DHT22;9418;52.694;13.294;2022-10-16T12:43:55;20.10;90.30
18577;DHT22;9418;52.694;13.294;2022-10-16T12:46:33;20.10;86.40
18577;DHT22;9418;52.694;13.294;2022-10-16T12:49:06;20.00;89.30
18577;DHT22;9418;52.694;13.294;2022-10-16T12:51:35;19.90;89.80
18577;DHT22;9418;52.694;13.294;2022-10-16T12:54:03;20.00;89.60
18577;DHT22;9418;52.694;13.294;2022-10-16T12:56:41;20.20;97.20
18577;DHT22;9418;52.694;13.294;2022-10-16T12:59:24;20.40;99.90
18577;DHT22;9418;52.694;13.294;2022-10-16T13:02:13;20.60;99.90
18577;DHT22;9418;52.694;13.294;2022-10-16T13:04:52;20.70;99.90
18577;DHT22;9418;52.694;13.294;2022-10-16T13:07:38;20.90;99.90
18577;DHT22;9418;52.694;13.294;2022-10-16T13:10:15;21.00;99.90
18577;DHT22;9418;52.694;13.294;2022-10-16T13:13:11;20.90;99.90
18577;DHT22;9418;52.694;13.294;2022-10-16T13:15:51;20.70;99.90
18577;DHT22;9418;52.694;13.294;2022-10-16T13:18:24;20.70;99.90
18577;DHT22;9418;52.694;13.294;2022-10-16T13:21:03;20.90;99.90
18577;DHT22;9418;52.694;13.294;2022-10-16T13:23:39;20.60;99.90
18577;DHT22;9418;52.694;13.294;2022-10-16T13:26:20;20.20;99.90
18577;DHT22;9418;52.694;13.294;2022-10-16T13:28:49;19.90;99.90
18577;DHT22;9418;52.694;13.294;2022-10-16T13:31:19;20.00;99.90
18577;DHT22;9418;52.694;13.294;2022-10-16T13:33:48;20.20;99.90
18577;DHT22;9418;52.694;13.294;2022-10-16T13:36:20;20.40;99.90
18577;DHT22;9418;52.694;13.294;2022-10-16T13:38:48;20.50;99.90
18577;DHT22;9418;52.694;13.294;2022-10-16T13:41:16;20.70;99.90
18577;DHT22;9418;52.694;13.294;2022-10-16T13:43:45;20.70;99.90
18577;DHT22;9418;52.694;13.294;2022-10-16T13:46:16;20.60;99.90
18577;DHT22;9418;52.694;13.294;2022-10-16T13:48:43;20.50;99.90
18577;DHT22;9418;52.694;13.294;2022-10-16T13:51:13;20.30;99.90
18577;DHT22;9418;52.694;13.294;2022-10-16T13:53:41;20.10;99.90
18577;DHT22;9418;52.694;13.294;2022-10-16T13:56:11;20.00;99.90
18577;DHT22;9418;52.694;13.294;2022-10-16T13:58:38;19.80;99.90
18577;DHT22;9418;52.694;13.294;2022-10-16T14:01:16;19.60;99.90
18577;DHT22;9418;52.694;13.294;2022-10-16T14:03:45;19.50;99.90
18577;DHT22;9418;52.694;13.294;2022-10-16T14:06:15;19.50;99.90
18577;DHT22;9418;52.694;13.294;2022-10-16T14:08:43;19.60;99.90
18577;DHT22;9418;52.694;13.294;2022-10-16T14:11:11;19.60;99.90
18577;DHT22;9418;52.694;13.294;2022-10-16T14:13:40;19.60;99.90
18577;DHT22;9418;52.694;13.294;2022-10-16T14:16:11;19.60;99.90
18577;DHT22;9418;52.694;13.294;2022-10-16T14:18:46;19.70;99.90
18577;DHT22;9418;52.694;13.294;2022-10-16T14:21:17;19.70;99.90
18577;DHT22;9418;52.694;13.294;2022-10-16T14:23:45;19.70;99.90
18577;DHT22;9418;52.694;13.294;2022-10-16T14:26:14;19.70;99.90
18577;DHT22;9418;52.694;13.294;2022-10-16T14:28:42;19.60;99.90
18577;DHT22;9418;52.694;13.294;2022-10-16T14:31:27;19.60;99.90
18577;DHT22;9418;52.694;13.294;2022-10-16T14:33:56;19.60;99.90
18577;DHT22;9418;52.694;13.294;2022-10-16T14:36:23;19.60;99.90
18577;DHT22;9418;52.694;13.294;2022-10-16T14:38:58;19.60;99.90
18577;DHT22;9418;52.694;13.294;2022-10-16T14:41:25;19.50;99.90
18577;DHT22;9418;52.694;13.294;2022-10-16T14:43:54;19.50;99.90
18577;DHT22;9418;52.694;13.294;2022-10-16T14:46:23;19.50;99.90
18577;DHT22;9418;52.694;13.294;2022-10-16T14:49:00;19.40;99.90
18577;DHT22;9418;52.694;13.294;2022-10-16T14:51:27;19.40;99.90
18577;DHT22;9418;52.694;13.294;2022-10-16T14:53:54;19.30;99.90
18577;DHT22;9418;52.694;13.294;2022-10-16T14:56:22;19.30;99.90
18577;DHT22;9418;52.694;13.294;2022-10-16T14:58:51;19.30;99.90
18577;DHT22;9418;52.694;13.294;2022-10-16T15:01:18;19.30;99.90
18577;DHT22;9418;52.694;13.294;2022-10-16T15:03:45;19.20;99.90
18577;DHT22;9418;52.694;13.294;2022-10-16T15:06:15;19.20;99.90
18577;DHT22;9418;52.694;13.294;2022-10-16T15:08:42;19.10;99.90
18577;DHT22;9418;52.694;13.294;2022-10-16T15:11:10;19.10;99.90
18577;DHT22;9418;52.694;13.294;2022-10-16T15:13:38;19.10;99.90
18577;DHT22;9418;52.694;13.294;2022-10-16T15:16:08;19.00;99.90
18577;DHT22;9418;52.694;13.294;2022-10-16T15:18:36;18.90;99.90
18577;DHT22;9418;52.694;13.294;2022-10-16T15:21:03;18.90;99.90
18577;DHT22;9418;52.694;13.294;2022-10-16T15:23:31;18.90;99.90
18577;DHT22;9418;52.694;13.294;2022-10-16T15:25:58;18.80;99.90
18577;DHT22;9418;52.694;13.294;2022-10-16T15:28:26;18.80;99.90
18577;DHT22;9418;52.694;13.294;2022-10-16T15:30:54;18.70;99.90
18577;DHT22;9418;52.694;13.294;2022-10-16T15:33:22;18.70;99.90
18577;DHT22;9418;52.694;13.294;2022-10-16T15:35:50;18.60;99.90
18577;DHT22;9418;52.694;13.294;2022-10-16T15:38:17;18.50;99.90
18577;DHT22;9418;52.694;13.294;2022-10-16T15:40:46;18.50;99.30
18577;DHT22;9418;52.694;13.294;2022-10-16T15:43:13;18.40;98.00
18577;DHT22;9418;52.694;13.294;2022-10-16T15:45:39;18.30;96.00